General Aviation Weather

Text Reports

Enter one or more of the following location identifiers separated by a space:

Zip Code, Four-Character ICAO or Three-Character IATA airport codes.

METAR - Aviation Routine Weather Report
KSFZ - Pawtucket, Rhode Island
Updated at 6:15 PM GMT on August 02, 2015 (2:15 PM EDT):
METAR KSFZ 021815Z AUTO 26005G17KT 10SM CLR 27/13 A2991 RMK AO1
TAF - Terminal Area Forecast
KSFZ - Pawtucket, Rhode Island
Updated at 6:15 PM GMT on August 02, 2015 (2:15 PM EDT):
No TAF is currently available for this location.
Decoded:
No decoded TAF is available.
PIREP - Pilot Weather Report
KSFZ - Pawtucket, Rhode Island
Updated at 6:15 PM GMT on August 02, 2015 (2:15 PM EDT):
No PIREP is currently available for this location.
AIRMET - Airmens Meteorological Information
KSFZ - Pawtucket, Rhode Island
Updated at 6:15 PM GMT on August 02, 2015 (2:15 PM EDT):
No AIRMET is currently available for this location.
SIGMET - Significant Meteorological Information
KSFZ - Pawtucket, Rhode Island
Updated at 6:15 PM GMT on August 02, 2015 (2:15 PM EDT):
No SIGMET is currently available for this location.
NOTAM - Notice to Airmen
KSFZ - Pawtucket, Rhode Island
Updated at 6:15 PM GMT on August 02, 2015 (2:15 PM EDT):
No NOTAM is currently available for this location.
Forecast Area
KSFZ - Pawtucket, Rhode Island
Updated at 6:15 PM GMT on August 02, 2015 (2:15 PM EDT):
No NOTAM is currently available for this location.
Aviation Weather Maps